LFLL/LYS METAR and TAF weather

Enter ICAO airport designator
Station Type Date Time Source
LFLL METAR 2019/12/12 08:30 UTC NOAA

LFLL 120830Z 14005KT 9999 BKN040 04/01 Q1011 NOSIG


Station Type Date Time Source
LFLL Decoded METAR 2019/12/12 08:30 UTC NOAA

Lyon / Satolas, France (LFLL) 45-44N 005-05E 240M
Dec 12, 2019 - 03:30 AM EST / 2019.12.12 0830 UTC
Wind: from the SE (140 degrees) at 6 MPH (5 KT):0
Visibility: greater than 7 mile(s):0
Sky conditions: mostly cloudy
Temperature: 39 F (4 C)
Dew Point: 33 F (1 C)
Relative Humidity: 80%
Pressure (altimeter): 29.85 in. Hg (1011 hPa)
ob: LFLL 120830Z 14005KT 9999 BKN040 04/01 Q1011 NOSIG
cycle: 8

Station Type Date Time Source
LFLL TAF 2019/12/12 06:42 UTC NOAA

TAF LFLL 120500Z 1206/1312 18005KT 9999 BKN035
BECMG 1209/1212 CAVOK
BECMG 1212/1215 18012KT
BECMG 1217/1220 18015G25KT BKN050
TEMPO 1219/1312 2500 RA SCT010 BKN030
TEMPO 1222/1309 18025G38KT

Example: see airport list